Cardwell, Missouri
Current Conditions -  °F | °C
As of 2:15 PM on Friday 19 Dec 2014 (Local Time) from K4M9 Reporting Station
Clear Clear  
Wind Chill: 34°   Ceiling: Unl
Heat Index: 39°   Visibility: 9mi
Dew Point: 32°   Wind: 8mph
Humidity: 75%   Direction: 50°NE
Pressure: 30.24"   Gusts: NA
Location:  36.05°N, 90.29°W
Report Text: K4M9 192015Z AUTO 05007KT 9SM CLR 04/00 A3024 RMK AO2
Loading
Personal Weather Stations






























Interactive Weather Map New forecast layout! Learn more

10-Day Weather Forecast

Advertisements
Track Severe Weather on mobile